createdAt,value
2022-12-03T00:00:13.221Z,16.83
2022-12-03T00:02:40.657Z,17.53
2022-12-03T00:05:07.705Z,18.43
2022-12-03T00:07:34.156Z,20.00
2022-12-03T00:10:00.602Z,18.60
2022-12-03T00:12:27.021Z,17.70
2022-12-03T00:14:53.674Z,18.30
2022-12-03T00:17:20.269Z,17.80
2022-12-03T00:19:46.692Z,17.97
2022-12-03T00:22:13.166Z,17.80
2022-12-03T00:24:39.581Z,17.50
2022-12-03T00:27:06.013Z,18.00
2022-12-03T00:29:32.398Z,17.77
2022-12-03T00:31:58.844Z,18.17
2022-12-03T00:34:25.250Z,17.73
2022-12-03T00:36:51.710Z,18.03
2022-12-03T00:39:18.121Z,16.83
2022-12-03T00:41:44.572Z,15.77
2022-12-03T00:44:11.907Z,16.20
2022-12-03T00:46:38.468Z,15.13
2022-12-03T00:49:04.995Z,14.30
2022-12-03T00:51:31.396Z,14.77
2022-12-03T00:53:57.789Z,14.40
2022-12-03T00:56:24.209Z,13.47
2022-12-03T00:58:50.692Z,13.70
2022-12-03T01:01:17.143Z,14.67
2022-12-03T01:03:43.585Z,14.13
2022-12-03T01:06:10.038Z,14.70
2022-12-03T01:08:36.434Z,13.13
2022-12-03T01:11:02.835Z,12.20
2022-12-03T01:13:29.243Z,11.87
2022-12-03T01:15:55.740Z,12.20
2022-12-03T01:18:22.184Z,12.73
2022-12-03T01:20:48.649Z,11.50
2022-12-03T01:23:15.043Z,11.40
2022-12-03T01:25:41.465Z,11.67
2022-12-03T01:28:07.943Z,10.80
2022-12-03T01:30:54.377Z,10.83
2022-12-03T01:33:20.828Z,10.87
2022-12-03T01:35:47.302Z,11.77
2022-12-03T01:38:13.700Z,11.57
2022-12-03T01:40:40.111Z,11.80
2022-12-03T01:43:06.539Z,11.67
2022-12-03T01:45:32.950Z,11.47
2022-12-03T01:47:59.360Z,11.80
2022-12-03T01:50:33.249Z,11.93
2022-12-03T01:53:01.529Z,11.20
2022-12-03T01:55:28.120Z,12.03
2022-12-03T01:57:57.064Z,11.73
2022-12-03T02:00:27.039Z,12.50
2022-12-03T02:02:59.312Z,11.77
2022-12-03T02:05:28.555Z,11.73
2022-12-03T02:07:55.411Z,12.60
2022-12-03T02:10:25.900Z,11.77
2022-12-03T02:12:58.808Z,12.03
2022-12-03T02:15:25.741Z,11.20
2022-12-03T02:17:52.401Z,12.80
2022-12-03T02:20:18.909Z,12.10
2022-12-03T02:23:18.070Z,12.17
2022-12-03T02:25:44.478Z,11.00
2022-12-03T02:28:10.988Z,11.20
2022-12-03T02:30:37.567Z,12.07
2022-12-03T02:33:04.079Z,12.00
2022-12-03T02:35:33.339Z,12.17
2022-12-03T02:38:06.919Z,11.63
2022-12-03T02:40:33.892Z,12.17
2022-12-03T02:43:01.659Z,12.77
2022-12-03T02:45:34.732Z,11.93
2022-12-03T02:48:05.106Z,11.40
2022-12-03T02:50:36.948Z,13.43
2022-12-03T02:53:07.267Z,11.53
2022-12-03T02:55:37.100Z,13.80
2022-12-03T02:58:04.603Z,12.93
2022-12-03T03:00:31.265Z,12.13
2022-12-03T03:02:57.811Z,11.77
2022-12-03T03:05:24.415Z,11.47
2022-12-03T03:07:51.558Z,11.53
2022-12-03T03:10:21.190Z,12.70
2022-12-03T03:12:47.749Z,11.90
2022-12-03T03:15:14.554Z,12.47
2022-12-03T03:17:41.540Z,12.70
2022-12-03T03:20:09.382Z,13.10
2022-12-03T03:22:41.613Z,12.07
2022-12-03T03:25:12.693Z,12.13
2022-12-03T03:27:39.989Z,12.80
2022-12-03T03:30:07.219Z,12.70
2022-12-03T03:32:34.047Z,12.13
2022-12-03T03:35:00.692Z,12.23
2022-12-03T03:37:27.983Z,12.70
2022-12-03T03:39:54.852Z,12.57
2022-12-03T03:42:21.309Z,12.03
2022-12-03T03:44:48.116Z,11.53
2022-12-03T03:47:14.847Z,13.03
2022-12-03T03:49:41.855Z,12.80
2022-12-03T03:52:10.107Z,12.53
2022-12-03T03:54:36.613Z,12.30
2022-12-03T03:57:03.131Z,12.43
2022-12-03T03:59:29.647Z,11.63
2022-12-03T04:01:56.209Z,12.43
2022-12-03T04:04:24.312Z,13.00
2022-12-03T04:06:50.828Z,12.90
2022-12-03T04:09:17.258Z,13.20
2022-12-03T04:12:02.390Z,13.73
2022-12-03T04:14:28.827Z,13.50
2022-12-03T04:16:55.319Z,16.03
2022-12-03T04:19:21.748Z,15.00
2022-12-03T04:22:06.869Z,16.60
2022-12-03T04:24:33.276Z,17.27
2022-12-03T04:27:18.433Z,17.97
2022-12-03T04:29:44.890Z,20.37
2022-12-03T04:32:29.827Z,19.20
2022-12-03T04:35:14.978Z,20.90
2022-12-03T04:37:41.452Z,22.10
2022-12-03T04:40:28.396Z,20.37
2022-12-03T04:42:54.815Z,20.13
2022-12-03T04:45:21.236Z,18.57
2022-12-03T04:47:47.631Z,18.73
2022-12-03T04:50:14.059Z,19.40
2022-12-03T04:52:40.552Z,19.57
2022-12-03T04:55:07.299Z,19.73
2022-12-03T04:57:33.710Z,20.27
2022-12-03T05:00:00.120Z,18.87
2022-12-03T05:02:26.616Z,18.77
2022-12-03T05:04:53.268Z,21.50
2022-12-03T05:07:19.852Z,21.17
2022-12-03T05:09:46.252Z,20.80
2022-12-03T05:12:12.639Z,21.60
2022-12-03T05:14:39.045Z,21.93
2022-12-03T05:17:05.523Z,22.60
2022-12-03T05:19:50.617Z,22.07
2022-12-03T05:22:17.013Z,23.80
2022-12-03T05:24:43.428Z,22.13
2022-12-03T05:27:09.840Z,23.70
2022-12-03T05:29:36.267Z,23.60
2022-12-03T05:32:02.732Z,22.00
2022-12-03T05:34:29.163Z,23.53
2022-12-03T05:36:55.767Z,24.47
2022-12-03T05:39:22.215Z,23.20
2022-12-03T05:42:07.194Z,25.10
2022-12-03T05:44:33.584Z,23.83
2022-12-03T05:46:59.998Z,25.63
2022-12-03T05:49:26.379Z,24.43
2022-12-03T05:51:58.275Z,23.00
2022-12-03T05:54:25.211Z,25.50
2022-12-03T05:56:51.628Z,26.23
2022-12-03T05:59:18.084Z,24.07
2022-12-03T06:01:44.579Z,26.63
2022-12-03T06:04:10.978Z,23.93
2022-12-03T06:06:37.400Z,24.40
2022-12-03T06:09:04.121Z,23.27
2022-12-03T06:11:30.578Z,24.77
2022-12-03T06:13:56.998Z,22.70
2022-12-03T06:16:23.512Z,24.40
2022-12-03T06:18:49.954Z,22.70
2022-12-03T06:21:16.421Z,25.13
2022-12-03T06:23:44.740Z,24.67
2022-12-03T06:26:15.005Z,23.53
2022-12-03T06:28:46.199Z,24.93
2022-12-03T06:31:13.486Z,24.83
2022-12-03T06:33:39.930Z,24.40
2022-12-03T06:36:06.848Z,21.93
2022-12-03T06:38:33.280Z,23.83
2022-12-03T06:40:59.696Z,24.10
2022-12-03T06:43:26.144Z,23.97
2022-12-03T06:45:52.928Z,22.70
2022-12-03T06:48:19.350Z,22.93
2022-12-03T06:50:45.755Z,22.57
2022-12-03T06:53:12.176Z,22.97
2022-12-03T06:55:38.608Z,23.67
2022-12-03T06:58:05.015Z,23.10
2022-12-03T07:00:31.410Z,22.80
2022-12-03T07:02:57.879Z,22.73
2022-12-03T07:05:24.335Z,22.57
2022-12-03T07:07:52.326Z,24.43
2022-12-03T07:10:19.253Z,22.53
2022-12-03T07:12:45.690Z,22.93
2022-12-03T07:15:12.161Z,23.97
2022-12-03T07:17:38.698Z,23.80
2022-12-03T07:20:05.982Z,22.80
2022-12-03T07:22:32.461Z,23.57
2022-12-03T07:24:58.882Z,25.70
2022-12-03T07:27:25.336Z,24.63
2022-12-03T07:29:51.793Z,23.13
2022-12-03T07:32:18.219Z,24.87
2022-12-03T07:34:44.633Z,23.90
2022-12-03T07:37:11.170Z,24.03
2022-12-03T07:39:37.641Z,24.77
2022-12-03T07:42:04.241Z,23.90
2022-12-03T07:44:33.601Z,24.97
2022-12-03T07:47:00.230Z,25.43
2022-12-03T07:49:26.978Z,24.17
2022-12-03T07:51:54.268Z,25.07
2022-12-03T07:54:21.276Z,25.13
2022-12-03T07:56:48.162Z,24.27
2022-12-03T07:59:15.534Z,23.37
2022-12-03T08:01:42.127Z,24.53
2022-12-03T08:04:08.991Z,24.73
2022-12-03T08:06:35.388Z,26.60
2022-12-03T08:09:01.778Z,23.37
2022-12-03T08:11:28.831Z,24.57
2022-12-03T08:13:56.441Z,25.90
2022-12-03T08:16:23.074Z,24.60
2022-12-03T08:18:50.500Z,26.10
2022-12-03T08:21:19.066Z,24.87
2022-12-03T08:23:45.866Z,26.97
2022-12-03T08:26:20.881Z,25.73
2022-12-03T08:28:47.483Z,26.67
2022-12-03T08:31:19.681Z,26.33
2022-12-03T08:33:59.736Z,24.83
2022-12-03T08:36:30.080Z,25.50
2022-12-03T08:38:59.584Z,25.90
2022-12-03T08:41:44.643Z,26.47
2022-12-03T08:44:30.050Z,25.03
2022-12-03T08:47:09.284Z,24.90
2022-12-03T08:49:36.731Z,25.60
2022-12-03T08:52:11.698Z,25.27
2022-12-03T08:54:39.125Z,24.70
2022-12-03T08:57:25.517Z,28.13
2022-12-03T08:59:56.802Z,25.80
2022-12-03T09:02:30.890Z,25.67
2022-12-03T09:04:57.312Z,25.90
2022-12-03T09:07:23.752Z,26.97
2022-12-03T09:09:50.315Z,27.40
2022-12-03T09:12:16.799Z,26.10
2022-12-03T09:14:43.203Z,26.50
2022-12-03T09:17:09.743Z,27.27
2022-12-03T09:19:38.988Z,26.07
2022-12-03T09:22:07.806Z,25.73
2022-12-03T09:24:34.198Z,25.37
2022-12-03T09:27:00.642Z,25.00
2022-12-03T09:29:27.038Z,25.57
2022-12-03T09:31:53.552Z,27.20
2022-12-03T09:34:20.048Z,25.93
2022-12-03T09:36:46.520Z,25.97
2022-12-03T09:39:12.948Z,26.73
2022-12-03T09:41:39.434Z,26.77
2022-12-03T09:44:07.008Z,25.27
2022-12-03T09:46:36.354Z,26.50
2022-12-03T09:49:03.904Z,26.87
2022-12-03T09:51:32.295Z,25.00
2022-12-03T09:54:00.197Z,24.77
2022-12-03T09:56:26.628Z,23.87
2022-12-03T09:58:53.111Z,24.97
2022-12-03T10:01:19.581Z,25.60
2022-12-03T10:03:48.191Z,25.23
2022-12-03T10:06:18.960Z,26.23
2022-12-03T10:08:50.045Z,24.77
2022-12-03T10:11:17.957Z,25.83
2022-12-03T10:13:44.564Z,24.70
2022-12-03T10:16:16.873Z,25.73
2022-12-03T10:18:47.287Z,25.03
2022-12-03T10:21:36.446Z,25.60
2022-12-03T10:24:30.306Z,24.70
2022-12-03T10:26:58.626Z,25.67
2022-12-03T10:29:34.002Z,24.70
2022-12-03T10:32:07.144Z,24.80
2022-12-03T10:34:36.033Z,25.13
2022-12-03T10:37:12.828Z,25.17
2022-12-03T10:39:58.390Z,24.37
2022-12-03T10:42:27.635Z,26.33
2022-12-03T10:45:20.216Z,24.90
2022-12-03T10:48:05.169Z,24.93
2022-12-03T10:50:31.903Z,23.97
2022-12-03T10:52:58.310Z,25.13
2022-12-03T10:55:25.025Z,25.93
2022-12-03T10:57:51.744Z,26.70
2022-12-03T11:00:22.720Z,24.60
2022-12-03T11:02:56.120Z,25.97
2022-12-03T11:05:27.257Z,25.47
2022-12-03T11:07:53.943Z,24.33
2022-12-03T11:10:20.578Z,24.63
2022-12-03T11:13:24.712Z,24.23
2022-12-03T11:15:51.195Z,23.77
2022-12-03T11:18:37.524Z,24.27
2022-12-03T11:21:14.344Z,23.93
2022-12-03T11:23:46.900Z,24.17
2022-12-03T11:26:18.939Z,24.50
2022-12-03T11:28:46.011Z,24.83
2022-12-03T11:31:43.513Z,25.03
2022-12-03T11:34:18.844Z,24.43
2022-12-03T11:37:10.162Z,26.00
2022-12-03T11:39:52.418Z,24.40
2022-12-03T11:42:28.410Z,24.80
2022-12-03T11:45:03.942Z,23.40
2022-12-03T11:47:59.525Z,23.50
2022-12-03T11:50:41.628Z,25.10
2022-12-03T11:53:07.917Z,23.70
2022-12-03T11:55:37.769Z,25.40
2022-12-03T11:58:13.433Z,24.60
2022-12-03T12:00:48.141Z,24.90
2022-12-03T12:03:25.339Z,23.30
2022-12-03T12:06:15.724Z,24.53
2022-12-03T12:08:51.345Z,23.40
2022-12-03T12:11:19.672Z,23.83
2022-12-03T12:14:09.340Z,23.93
2022-12-03T12:16:51.125Z,23.50
2022-12-03T12:19:27.657Z,23.37
2022-12-03T12:21:54.675Z,24.23
2022-12-03T12:24:43.518Z,23.43
2022-12-03T12:27:12.094Z,22.50
2022-12-03T12:29:40.362Z,23.93
2022-12-03T12:32:16.246Z,24.33
2022-12-03T12:34:45.313Z,24.63
2022-12-03T12:37:12.977Z,24.03
2022-12-03T12:39:39.456Z,23.83
2022-12-03T12:42:23.513Z,24.27
2022-12-03T12:44:50.304Z,23.20
2022-12-03T12:47:16.817Z,23.03
2022-12-03T12:49:46.191Z,23.07
2022-12-03T12:52:16.566Z,25.47
2022-12-03T12:54:43.143Z,23.47
2022-12-03T12:57:14.234Z,23.30
2022-12-03T12:59:40.659Z,22.60
2022-12-03T13:02:30.349Z,23.47
2022-12-03T13:04:56.808Z,24.50
2022-12-03T13:07:23.326Z,23.87
2022-12-03T13:09:55.429Z,23.07
2022-12-03T13:12:23.442Z,23.93
2022-12-03T13:14:52.024Z,23.57
2022-12-03T13:17:25.943Z,22.80
2022-12-03T13:20:05.134Z,22.13
2022-12-03T13:22:33.788Z,21.37
2022-12-03T13:25:03.612Z,22.53
2022-12-03T13:27:30.245Z,24.67
2022-12-03T13:30:00.087Z,25.43
2022-12-03T13:32:36.531Z,24.30
2022-12-03T13:35:18.099Z,23.00
2022-12-03T13:37:44.802Z,23.80
2022-12-03T13:40:26.915Z,24.03
2022-12-03T13:42:54.286Z,25.53
2022-12-03T13:45:20.694Z,24.13
2022-12-03T13:47:54.059Z,24.43
2022-12-03T13:50:44.470Z,24.03
2022-12-03T13:53:14.020Z,24.73
2022-12-03T13:55:44.532Z,24.80
2022-12-03T13:58:11.076Z,23.50
2022-12-03T14:00:37.707Z,24.67
2022-12-03T14:03:04.546Z,22.83
2022-12-03T14:05:31.069Z,24.30
2022-12-03T14:08:02.268Z,25.13
2022-12-03T14:10:29.647Z,23.27
2022-12-03T14:12:56.581Z,22.90
2022-12-03T14:15:23.076Z,23.93
2022-12-03T14:17:49.545Z,23.83
2022-12-03T14:20:16.210Z,23.20
2022-12-03T14:22:42.709Z,24.13
2022-12-03T14:25:09.691Z,22.93
2022-12-03T14:27:36.574Z,23.27
2022-12-03T14:30:03.706Z,21.33
2022-12-03T14:32:30.262Z,25.20
2022-12-03T14:34:56.842Z,23.97
2022-12-03T14:37:23.321Z,23.20
2022-12-03T14:39:49.795Z,22.40
2022-12-03T14:42:16.935Z,23.00
2022-12-03T14:44:48.661Z,23.30
2022-12-03T14:47:17.692Z,21.77
2022-12-03T14:49:44.292Z,23.30
2022-12-03T14:52:12.552Z,23.77
2022-12-03T14:54:41.968Z,23.73
2022-12-03T14:57:09.162Z,23.43
2022-12-03T14:59:35.680Z,22.50
2022-12-03T15:02:02.366Z,24.07
2022-12-03T15:04:28.938Z,22.63
2022-12-03T15:06:55.368Z,24.03
2022-12-03T15:09:21.988Z,24.60
2022-12-03T15:11:48.547Z,23.70
2022-12-03T15:14:15.192Z,24.43
2022-12-03T15:16:42.143Z,22.80
2022-12-03T15:19:08.740Z,24.77
2022-12-03T15:21:35.280Z,25.87
2022-12-03T15:24:02.528Z,22.53
2022-12-03T15:26:29.328Z,23.23
2022-12-03T15:28:55.845Z,24.80
2022-12-03T15:31:22.373Z,23.23
2022-12-03T15:33:48.871Z,24.97
2022-12-03T15:36:15.427Z,25.30
2022-12-03T15:38:41.943Z,23.10
2022-12-03T15:41:21.352Z,22.47
2022-12-03T15:43:48.797Z,24.93
2022-12-03T15:46:15.527Z,23.30
2022-12-03T15:48:42.118Z,24.43
2022-12-03T15:51:08.667Z,25.57
2022-12-03T15:53:35.167Z,24.50
2022-12-03T15:56:01.716Z,25.73
2022-12-03T15:58:28.787Z,24.90
2022-12-03T16:00:55.323Z,23.87
2022-12-03T16:03:21.814Z,24.33
2022-12-03T16:05:48.312Z,25.57
2022-12-03T16:08:14.842Z,24.27
2022-12-03T16:10:41.361Z,26.83
2022-12-03T16:13:07.878Z,24.20
2022-12-03T16:15:35.223Z,24.47
2022-12-03T16:18:01.931Z,27.17
2022-12-03T16:20:28.444Z,23.93
2022-12-03T16:22:54.972Z,23.63
2022-12-03T16:25:21.565Z,23.87
2022-12-03T16:27:48.057Z,25.10
2022-12-03T16:30:14.757Z,24.77
2022-12-03T16:32:41.714Z,25.87
2022-12-03T16:35:08.401Z,24.57
2022-12-03T16:37:34.914Z,23.33
2022-12-03T16:40:01.513Z,23.67
2022-12-03T16:42:28.142Z,24.00
2022-12-03T16:45:12.235Z,29.67
2022-12-03T16:47:38.804Z,23.57
2022-12-03T16:50:11.568Z,24.23
2022-12-03T16:52:40.709Z,24.43
2022-12-03T16:55:07.686Z,24.77
2022-12-03T16:57:34.218Z,23.77
2022-12-03T17:00:01.091Z,23.80
2022-12-03T17:02:27.967Z,25.27
2022-12-03T17:04:54.690Z,23.17
2022-12-03T17:07:21.248Z,23.03
2022-12-03T17:09:47.727Z,24.70
2022-12-03T17:12:14.208Z,23.77
2022-12-03T17:14:40.711Z,24.80
2022-12-03T17:17:07.210Z,22.73
2022-12-03T17:19:33.697Z,23.63
2022-12-03T17:22:00.195Z,23.50
2022-12-03T17:24:27.738Z,25.20
2022-12-03T17:26:54.260Z,24.07
2022-12-03T17:29:20.759Z,23.00
2022-12-03T17:31:47.314Z,23.00
2022-12-03T17:34:13.895Z,23.73
2022-12-03T17:36:40.374Z,26.63
2022-12-03T17:39:06.841Z,24.63
2022-12-03T17:41:33.326Z,24.43
2022-12-03T17:43:59.811Z,23.93
2022-12-03T17:46:26.365Z,24.97
2022-12-03T17:48:52.912Z,24.63
2022-12-03T17:51:21.046Z,24.53
2022-12-03T17:53:47.551Z,24.07
2022-12-03T17:56:14.279Z,23.70
2022-12-03T17:58:40.806Z,22.37
2022-12-03T18:01:09.513Z,23.70
2022-12-03T18:03:36.748Z,24.03
2022-12-03T18:06:04.278Z,24.13
2022-12-03T18:08:30.899Z,22.60
2022-12-03T18:10:57.466Z,23.90
2022-12-03T18:13:24.020Z,23.57
2022-12-03T18:15:50.590Z,25.17
2022-12-03T18:18:17.090Z,24.30
2022-12-03T18:20:43.621Z,23.60
2022-12-03T18:23:10.182Z,23.90
2022-12-03T18:25:36.641Z,23.23
2022-12-03T18:28:03.119Z,23.63
2022-12-03T18:30:29.563Z,24.57
2022-12-03T18:32:56.002Z,22.63
2022-12-03T18:35:22.489Z,23.17
2022-12-03T18:37:50.112Z,22.57
2022-12-03T18:40:23.104Z,22.47
2022-12-03T18:42:49.551Z,22.53
2022-12-03T18:45:16.556Z,23.93
2022-12-03T18:47:43.232Z,23.87
2022-12-03T18:50:10.667Z,22.80
2022-12-03T18:52:37.375Z,24.10
2022-12-03T18:55:05.144Z,21.90
2022-12-03T18:57:31.645Z,23.07
2022-12-03T18:59:58.421Z,22.27
2022-12-03T19:02:54.249Z,22.03
2022-12-03T19:05:11.591Z,23.37
2022-12-03T19:07:38.297Z,23.53
2022-12-03T19:10:05.043Z,24.13
2022-12-03T19:12:32.961Z,22.20
2022-12-03T19:14:59.377Z,22.10
2022-12-03T19:17:27.150Z,23.33
2022-12-03T19:19:54.079Z,24.37
2022-12-03T19:22:20.957Z,22.33
2022-12-03T19:24:47.392Z,23.20
2022-12-03T19:27:14.183Z,23.67
2022-12-03T19:29:42.125Z,22.60
2022-12-03T19:32:08.973Z,24.37
2022-12-03T19:34:35.776Z,22.37
2022-12-03T19:37:02.194Z,22.13
2022-12-03T19:39:28.609Z,23.53
2022-12-03T19:41:55.019Z,23.40
2022-12-03T19:44:21.523Z,21.53
2022-12-03T19:46:49.544Z,23.47
2022-12-03T19:49:18.467Z,23.83
2022-12-03T19:51:45.196Z,21.53
2022-12-03T19:54:12.041Z,22.30
2022-12-03T19:56:38.701Z,22.83
2022-12-03T19:59:05.512Z,23.03
2022-12-03T20:01:34.057Z,22.27
2022-12-03T20:04:01.814Z,25.23
2022-12-03T20:06:30.375Z,23.57
2022-12-03T20:08:58.372Z,22.70
2022-12-03T20:11:27.282Z,22.30
2022-12-03T20:13:59.703Z,23.37
2022-12-03T20:16:26.960Z,21.93
2022-12-03T20:18:57.540Z,22.87
2022-12-03T20:21:24.089Z,22.87
2022-12-03T20:23:50.598Z,20.67
2022-12-03T20:26:20.259Z,23.33
2022-12-03T20:28:48.017Z,20.93
2022-12-03T20:31:17.290Z,22.23
2022-12-03T20:33:45.696Z,22.90
2022-12-03T20:36:13.320Z,22.77
2022-12-03T20:38:40.152Z,20.90
2022-12-03T20:41:11.949Z,22.37
2022-12-03T20:43:38.589Z,21.77
2022-12-03T20:46:31.579Z,20.90
2022-12-03T20:48:59.064Z,22.10
2022-12-03T20:51:27.804Z,22.30
2022-12-03T20:53:54.348Z,22.47
2022-12-03T20:56:26.466Z,21.50
2022-12-03T20:58:53.633Z,23.00
2022-12-03T21:01:26.510Z,20.80
2022-12-03T21:03:54.670Z,20.73
2022-12-03T21:06:21.823Z,23.07
2022-12-03T21:08:48.527Z,21.70
2022-12-03T21:11:18.146Z,23.43
2022-12-03T21:13:45.526Z,21.70
2022-12-03T21:16:14.254Z,22.53
2022-12-03T21:18:41.402Z,22.53
2022-12-03T21:21:09.039Z,22.77
2022-12-03T21:23:36.000Z,23.37
2022-12-03T21:26:13.062Z,23.07
2022-12-03T21:28:40.880Z,22.00
2022-12-03T21:31:09.561Z,23.30
2022-12-03T21:33:36.430Z,23.20
2022-12-03T21:36:03.794Z,22.60
2022-12-03T21:38:30.611Z,23.67
2022-12-03T21:40:57.663Z,22.97
2022-12-03T21:43:24.759Z,22.17
2022-12-03T21:45:51.587Z,24.53
2022-12-03T21:48:18.874Z,22.53
2022-12-03T21:50:45.748Z,20.80
2022-12-03T21:53:12.553Z,22.33
2022-12-03T21:55:40.599Z,23.37
2022-12-03T21:58:08.083Z,23.97
2022-12-03T22:00:34.607Z,23.90
2022-12-03T22:03:01.127Z,22.40
2022-12-03T22:05:27.572Z,22.73
2022-12-03T22:07:54.044Z,23.40
2022-12-03T22:10:20.623Z,23.60
2022-12-03T22:12:47.026Z,23.67
2022-12-03T22:15:18.494Z,22.63
2022-12-03T22:17:45.705Z,23.40
2022-12-03T22:20:12.688Z,22.93
2022-12-03T22:22:39.119Z,23.37
2022-12-03T22:25:05.683Z,23.03
2022-12-03T22:27:32.102Z,24.27
2022-12-03T22:29:58.518Z,23.10
2022-12-03T22:32:25.060Z,23.30
2022-12-03T22:34:51.482Z,23.97
2022-12-03T22:37:17.924Z,22.80
2022-12-03T22:39:44.356Z,23.43
2022-12-03T22:42:10.790Z,24.63
2022-12-03T22:44:37.202Z,22.57
2022-12-03T22:47:03.820Z,22.80
2022-12-03T22:49:30.249Z,22.87
2022-12-03T22:51:56.707Z,24.20
2022-12-03T22:54:24.273Z,24.37
2022-12-03T22:56:51.112Z,24.13
2022-12-03T22:59:17.577Z,22.83
2022-12-03T23:01:44.021Z,21.80
2022-12-03T23:04:11.315Z,23.33
2022-12-03T23:06:38.388Z,23.20
2022-12-03T23:09:06.424Z,23.73
2022-12-03T23:11:33.367Z,22.17
2022-12-03T23:13:59.853Z,23.10
2022-12-03T23:16:29.423Z,23.03
2022-12-03T23:18:58.305Z,24.53
2022-12-03T23:21:29.880Z,24.73
2022-12-03T23:24:00.805Z,23.30
2022-12-03T23:26:27.755Z,25.07
2022-12-03T23:28:54.740Z,25.33
2022-12-03T23:31:23.367Z,24.67
2022-12-03T23:33:50.941Z,25.73
2022-12-03T23:36:17.816Z,25.53
2022-12-03T23:38:44.731Z,24.27
2022-12-03T23:41:13.866Z,24.97
2022-12-03T23:43:40.984Z,23.87
2022-12-03T23:46:09.785Z,24.63
2022-12-03T23:48:36.576Z,23.43
2022-12-03T23:51:15.193Z,23.00
2022-12-03T23:53:41.781Z,24.07
2022-12-03T23:56:11.442Z,24.27
2022-12-03T23:58:38.567Z,24.87
